createdAt,value
2022-09-13T00:01:06.485Z,3.28
2022-09-13T00:03:56.679Z,3.75
2022-09-13T00:06:46.864Z,4.53
2022-09-13T00:09:37.286Z,4.25
2022-09-13T00:12:27.684Z,3.88
2022-09-13T00:15:18.437Z,3.70
2022-09-13T00:18:08.253Z,4.28
2022-09-13T00:21:16.151Z,4.05
2022-09-13T00:24:06.540Z,4.18
2022-09-13T00:26:56.724Z,4.25
2022-09-13T00:29:46.961Z,4.40
2022-09-13T00:32:37.192Z,3.88
2022-09-13T00:35:27.069Z,4.00
2022-09-13T00:38:16.878Z,3.58
2022-09-13T00:41:10.441Z,3.63
2022-09-13T00:44:02.571Z,3.55
2022-09-13T00:46:52.675Z,3.80
2022-09-13T00:49:43.650Z,3.75
2022-09-13T00:52:37.515Z,3.95
2022-09-13T00:55:34.743Z,3.92
2022-09-13T00:58:30.643Z,3.97
2022-09-13T01:01:26.005Z,4.45
2022-09-13T01:04:19.941Z,4.30
2022-09-13T01:07:13.683Z,4.22
2022-09-13T01:10:07.639Z,4.23
2022-09-13T01:16:05.671Z,4.00
2022-09-13T01:18:55.987Z,4.38
2022-09-13T01:22:13.609Z,4.38
2022-09-13T01:25:14.470Z,3.97
2022-09-13T01:28:42.032Z,3.88
2022-09-13T01:31:45.100Z,3.88
2022-09-13T01:34:52.604Z,4.00
2022-09-13T01:37:52.032Z,3.95
2022-09-13T01:41:07.834Z,4.28
2022-09-13T01:44:28.720Z,4.40
2022-09-13T01:47:34.769Z,4.63
2022-09-13T01:50:40.517Z,4.03
2022-09-13T01:54:06.915Z,4.45
2022-09-13T01:57:27.225Z,3.97
2022-09-13T02:00:18.601Z,3.97
2022-09-13T02:03:18.355Z,4.22
2022-09-13T02:06:13.950Z,3.83
2022-09-13T02:09:11.540Z,4.25
2022-09-13T02:12:09.199Z,4.22
2022-09-13T02:15:09.102Z,4.05
2022-09-13T02:18:24.708Z,4.53
2022-09-13T02:21:22.428Z,4.50
2022-09-13T02:24:19.659Z,4.78
2022-09-13T02:27:15.445Z,5.05
2022-09-13T02:30:11.045Z,4.72
2022-09-13T02:33:08.600Z,4.30
2022-09-13T02:36:08.515Z,4.47
2022-09-13T02:39:12.072Z,4.43
2022-09-13T02:42:14.199Z,4.60
2022-09-13T02:45:06.455Z,4.78
2022-09-13T02:48:00.359Z,4.13
2022-09-13T02:50:56.342Z,4.30
2022-09-13T02:54:23.865Z,4.22
2022-09-13T02:57:22.434Z,4.65
2022-09-13T03:00:13.698Z,4.47
2022-09-13T03:03:07.068Z,5.18
2022-09-13T03:05:56.941Z,4.97
2022-09-13T03:08:47.109Z,5.05
2022-09-13T03:12:09.962Z,5.03
2022-09-13T03:15:14.423Z,5.00
2022-09-13T03:18:17.684Z,4.47
2022-09-13T03:21:30.454Z,5.43
2022-09-13T03:24:28.465Z,5.32
2022-09-13T03:27:30.543Z,5.40
2022-09-13T03:30:20.835Z,5.78
2022-09-13T03:33:21.264Z,5.75
2022-09-13T03:36:18.516Z,5.55
2022-09-13T03:39:18.196Z,5.53
2022-09-13T03:42:17.824Z,5.38
2022-09-13T03:45:09.734Z,5.05
2022-09-13T03:48:01.491Z,4.38
2022-09-13T03:50:51.791Z,4.82
2022-09-13T03:53:48.427Z,5.47
2022-09-13T03:56:38.536Z,5.13
2022-09-13T03:59:28.891Z,4.97
2022-09-13T04:02:19.852Z,4.78
2022-09-13T04:05:10.613Z,5.32
2022-09-13T04:08:01.851Z,4.60
2022-09-13T04:10:54.766Z,4.63
2022-09-13T04:13:45.052Z,5.17
2022-09-13T04:16:35.011Z,4.97
2022-09-13T04:19:26.381Z,5.30
2022-09-13T04:22:16.270Z,5.18
2022-09-13T04:25:06.668Z,4.90
2022-09-13T04:27:59.770Z,5.50
2022-09-13T04:30:50.179Z,5.38
2022-09-13T04:33:41.210Z,5.57
2022-09-13T04:36:32.025Z,5.50
2022-09-13T04:39:23.725Z,5.60
2022-09-13T04:42:14.547Z,5.50
2022-09-13T04:45:05.243Z,5.88
2022-09-13T04:47:56.533Z,5.57
2022-09-13T04:50:47.549Z,5.38
2022-09-13T04:53:37.714Z,5.28
2022-09-13T04:56:27.919Z,5.78
2022-09-13T04:59:17.916Z,5.40
2022-09-13T05:02:07.728Z,4.88
2022-09-13T05:04:58.102Z,5.70
2022-09-13T05:07:51.656Z,5.93
2022-09-13T05:10:41.767Z,5.38
2022-09-13T05:13:33.594Z,5.35
2022-09-13T05:16:25.604Z,5.32
2022-09-13T05:19:15.799Z,5.90
2022-09-13T05:22:06.024Z,5.18
2022-09-13T05:24:56.647Z,4.90
2022-09-13T05:27:46.598Z,5.97
2022-09-13T05:30:40.430Z,5.80
2022-09-13T05:33:35.325Z,5.63
2022-09-13T05:36:26.180Z,5.10
2022-09-13T05:39:54.362Z,5.97
2022-09-13T05:42:32.019Z,5.72
2022-09-13T05:45:21.884Z,5.82
2022-09-13T05:48:11.818Z,6.10
2022-09-13T05:51:10.450Z,6.00
2022-09-13T05:54:00.335Z,5.70
2022-09-13T05:56:52.518Z,5.55
2022-09-13T05:59:42.728Z,6.22
2022-09-13T06:02:32.621Z,7.07
2022-09-13T06:05:22.967Z,5.93
2022-09-13T06:08:13.042Z,6.68
2022-09-13T06:11:08.038Z,6.20
2022-09-13T06:13:57.854Z,6.15
2022-09-13T06:16:47.627Z,6.30
2022-09-13T06:19:37.537Z,6.50
2022-09-13T06:22:33.058Z,6.75
2022-09-13T06:25:23.148Z,6.65
2022-09-13T06:28:13.077Z,6.15
2022-09-13T06:31:08.634Z,6.55
2022-09-13T06:34:02.281Z,6.70
2022-09-13T06:36:52.122Z,6.35
2022-09-13T06:39:42.106Z,6.10
2022-09-13T06:42:36.674Z,6.57
2022-09-13T06:45:27.091Z,6.13
2022-09-13T06:48:18.388Z,6.38
2022-09-13T06:51:14.148Z,7.43
2022-09-13T06:54:04.314Z,6.20
2022-09-13T06:56:54.473Z,6.18
2022-09-13T06:59:44.422Z,6.18
2022-09-13T07:02:34.347Z,5.93
2022-09-13T07:05:24.247Z,5.88
2022-09-13T07:08:14.149Z,6.18
2022-09-13T07:11:04.348Z,5.38
2022-09-13T07:13:56.910Z,4.47
2022-09-13T07:16:47.180Z,4.57
2022-09-13T07:19:37.307Z,4.43
2022-09-13T07:22:27.931Z,4.40
2022-09-13T07:25:17.922Z,4.10
2022-09-13T07:28:07.807Z,4.35
2022-09-13T07:31:06.722Z,4.53
2022-09-13T07:33:59.414Z,4.18
2022-09-13T07:36:50.319Z,3.80
2022-09-13T07:39:40.472Z,3.67
2022-09-13T07:42:30.775Z,3.78
2022-09-13T07:45:22.004Z,3.85
2022-09-13T07:48:11.796Z,3.30
2022-09-13T07:51:01.823Z,3.40
2022-09-13T07:53:57.313Z,3.30
2022-09-13T07:56:50.172Z,3.15
2022-09-13T07:59:40.201Z,3.75
2022-09-13T08:02:30.110Z,3.92
2022-09-13T08:05:20.539Z,3.72
2022-09-13T08:08:10.580Z,3.40
2022-09-13T08:11:02.832Z,3.78
2022-09-13T08:13:53.323Z,4.75
2022-09-13T08:16:43.791Z,3.30
2022-09-13T08:19:33.837Z,3.20
2022-09-13T08:22:23.743Z,2.67
2022-09-13T08:25:13.659Z,2.90
2022-09-13T08:28:09.154Z,3.08
2022-09-13T08:31:20.491Z,2.92
2022-09-13T08:34:14.431Z,3.08
2022-09-13T08:37:04.674Z,3.03
2022-09-13T08:39:54.979Z,3.03
2022-09-13T08:42:48.559Z,3.03
2022-09-13T08:48:39.874Z,4.88
2022-09-13T08:51:44.322Z,3.70
2022-09-13T08:54:34.386Z,2.72
2022-09-13T08:57:50.383Z,3.00
2022-09-13T09:00:46.991Z,3.30
2022-09-13T09:03:53.573Z,3.70
2022-09-13T09:06:43.718Z,2.97
2022-09-13T09:09:41.943Z,3.10
2022-09-13T09:12:46.455Z,2.90
2022-09-13T09:15:41.401Z,2.85
2022-09-13T09:18:45.988Z,2.70
2022-09-13T09:24:26.966Z,2.47
2022-09-13T09:27:19.393Z,2.40
2022-09-13T09:30:14.630Z,1.85
2022-09-13T09:33:40.113Z,2.42
2022-09-13T09:36:40.395Z,2.35
2022-09-13T09:39:39.210Z,2.22
2022-09-13T09:42:39.376Z,2.90
2022-09-13T09:45:34.215Z,2.42
2022-09-13T09:48:29.762Z,2.38
2022-09-13T09:51:23.183Z,2.00
2022-09-13T09:54:13.355Z,1.88
2022-09-13T09:57:03.638Z,2.40
2022-09-13T10:00:10.840Z,2.22
2022-09-13T10:03:07.834Z,2.05
2022-09-13T10:06:11.448Z,2.70
2022-09-13T10:09:05.508Z,2.45
2022-09-13T10:11:58.208Z,2.60
2022-09-13T10:14:48.988Z,1.95
2022-09-13T10:17:39.220Z,1.80
2022-09-13T10:20:31.385Z,1.85
2022-09-13T10:23:21.650Z,1.40
2022-09-13T10:26:23.869Z,1.60
2022-09-13T10:29:17.651Z,1.30
2022-09-13T10:32:09.397Z,1.42
2022-09-13T10:35:15.813Z,1.30
2022-09-13T10:38:24.325Z,6.65
2022-09-13T10:41:24.341Z,2.30
2022-09-13T10:44:46.530Z,1.45
2022-09-13T10:47:47.766Z,1.50
2022-09-13T10:50:38.021Z,1.00
2022-09-13T10:53:37.993Z,1.98
2022-09-13T10:56:28.170Z,3.00
2022-09-13T10:59:29.538Z,2.75
2022-09-13T11:02:41.849Z,1.10
2022-09-13T11:05:38.552Z,0.63
2022-09-13T11:08:46.754Z,0.90
2022-09-13T11:12:13.388Z,1.00
2022-09-13T11:15:31.940Z,0.73
2022-09-13T11:19:04.945Z,0.95
2022-09-13T11:22:25.011Z,0.93
2022-09-13T11:25:30.957Z,0.88
2022-09-13T11:28:46.200Z,1.10
2022-09-13T11:32:07.417Z,0.90
2022-09-13T11:35:42.236Z,0.70
2022-09-13T11:38:50.410Z,0.95
2022-09-13T11:42:05.245Z,1.05
2022-09-13T11:48:48.400Z,0.93
2022-09-13T11:51:59.196Z,0.90
2022-09-13T11:55:07.041Z,1.08
2022-09-13T11:58:01.204Z,0.70
2022-09-13T12:01:00.078Z,0.70
2022-09-13T12:04:04.381Z,0.60
2022-09-13T12:07:00.689Z,1.20
2022-09-13T12:10:03.658Z,1.05
2022-09-13T12:12:56.613Z,0.82
2022-09-13T12:15:51.269Z,1.00
2022-09-13T12:18:52.714Z,0.93
2022-09-13T12:21:44.472Z,0.88
2022-09-13T12:24:44.973Z,0.80
2022-09-13T12:27:44.344Z,0.88
2022-09-13T12:30:49.512Z,0.65
2022-09-13T12:33:42.220Z,1.00
2022-09-13T12:36:47.438Z,0.73
2022-09-13T12:39:57.313Z,1.00
2022-09-13T12:42:59.436Z,0.80
2022-09-13T12:46:21.138Z,1.02
2022-09-13T12:49:21.953Z,0.60
2022-09-13T12:52:40.412Z,0.68
2022-09-13T12:55:53.473Z,0.95
2022-09-13T12:59:02.824Z,0.70
2022-09-13T13:01:53.732Z,0.70
2022-09-13T13:04:43.856Z,0.60
2022-09-13T13:07:36.704Z,0.57
2022-09-13T13:10:34.112Z,0.80
2022-09-13T13:13:45.560Z,0.55
2022-09-13T13:16:37.899Z,0.60
2022-09-13T13:19:31.967Z,0.55
2022-09-13T13:22:44.319Z,0.50
2022-09-13T13:25:38.871Z,0.43
2022-09-13T13:28:44.359Z,0.40
2022-09-13T13:31:36.245Z,0.43
2022-09-13T13:34:50.242Z,0.45
2022-09-13T13:37:40.375Z,0.70
2022-09-13T13:40:30.632Z,0.43
2022-09-13T13:43:30.540Z,0.43
2022-09-13T13:46:31.151Z,0.40
2022-09-13T13:49:30.151Z,0.60
2022-09-13T13:52:23.025Z,0.52
2022-09-13T13:55:42.820Z,0.35
2022-09-13T13:59:05.593Z,0.35
2022-09-13T14:01:59.483Z,0.32
2022-09-13T14:05:08.770Z,0.40
2022-09-13T14:08:23.753Z,0.50
2022-09-13T14:11:39.298Z,0.60
2022-09-13T14:14:39.775Z,0.45
2022-09-13T14:17:41.643Z,0.50
2022-09-13T14:20:31.490Z,0.70
2022-09-13T14:23:21.940Z,0.32
2022-09-13T14:26:12.726Z,0.50
2022-09-13T14:29:07.395Z,0.40
2022-09-13T14:32:09.194Z,0.40
2022-09-13T14:35:02.227Z,0.50
2022-09-13T14:37:52.720Z,0.20
2022-09-13T14:40:48.610Z,0.20
2022-09-13T14:43:39.394Z,0.30
2022-09-13T14:46:39.927Z,0.60
2022-09-13T14:49:36.180Z,0.60
2022-09-13T14:52:48.429Z,0.60
2022-09-13T14:55:43.866Z,0.50
2022-09-13T14:58:55.002Z,0.50
2022-09-13T15:01:45.373Z,0.40
2022-09-13T15:04:43.078Z,0.47
2022-09-13T15:07:36.152Z,0.60
2022-09-13T15:10:46.554Z,0.47
2022-09-13T15:13:38.393Z,0.47
2022-09-13T15:16:31.681Z,0.40
2022-09-13T15:19:29.288Z,0.40
2022-09-13T15:22:30.100Z,0.30
2022-09-13T15:25:25.939Z,0.30
2022-09-13T15:28:28.354Z,0.50
2022-09-13T15:31:27.891Z,0.35
2022-09-13T15:34:17.958Z,0.35
2022-09-13T15:37:13.668Z,0.60
2022-09-13T15:40:21.282Z,0.50
2022-09-13T15:43:11.351Z,0.50
2022-09-13T15:46:02.272Z,0.50
2022-09-13T15:48:58.256Z,0.75
2022-09-13T15:51:54.966Z,0.60
2022-09-13T15:54:49.344Z,0.60
2022-09-13T15:57:39.456Z,0.40
2022-09-13T16:00:30.210Z,0.60
2022-09-13T16:03:21.006Z,0.40
2022-09-13T16:06:11.195Z,0.50
2022-09-13T16:09:02.481Z,0.45
2022-09-13T16:11:53.152Z,0.70
2022-09-13T16:14:43.042Z,0.65
2022-09-13T16:17:34.288Z,0.88
2022-09-13T16:20:27.846Z,0.47
2022-09-13T16:23:18.135Z,0.60
2022-09-13T16:26:08.381Z,0.68
2022-09-13T16:28:58.683Z,0.52
2022-09-13T16:31:48.941Z,0.60
2022-09-13T16:34:39.507Z,0.70
2022-09-13T16:37:30.015Z,0.57
2022-09-13T16:40:20.836Z,0.90
2022-09-13T16:43:12.676Z,1.25
2022-09-13T16:46:12.137Z,1.00
2022-09-13T16:49:02.477Z,0.73
2022-09-13T16:51:52.938Z,0.90
2022-09-13T16:54:46.162Z,0.88
2022-09-13T16:57:37.205Z,0.73
2022-09-13T17:00:28.750Z,0.80
2022-09-13T17:03:19.167Z,0.85
2022-09-13T17:06:12.493Z,0.90
2022-09-13T17:09:05.476Z,0.93
2022-09-13T17:11:55.701Z,0.90
2022-09-13T17:14:47.467Z,0.98
2022-09-13T17:17:37.732Z,0.80
2022-09-13T17:20:27.911Z,0.80
2022-09-13T17:23:17.939Z,0.98
2022-09-13T17:26:08.258Z,0.90
2022-09-13T17:28:58.909Z,0.93
2022-09-13T17:31:49.144Z,0.98
2022-09-13T17:34:39.420Z,1.00
2022-09-13T17:37:30.199Z,1.00
2022-09-13T17:40:20.104Z,0.98
2022-09-13T17:43:10.401Z,1.30
2022-09-13T17:46:33.506Z,2.15
2022-09-13T17:49:23.494Z,1.23
2022-09-13T17:52:13.551Z,1.65
2022-09-13T17:55:04.694Z,1.85
2022-09-13T17:57:55.731Z,2.92
2022-09-13T18:00:45.651Z,1.67
2022-09-13T18:03:37.399Z,1.92
2022-09-13T18:06:27.685Z,1.45
2022-09-13T18:09:18.333Z,1.60
2022-09-13T18:12:08.267Z,1.50
2022-09-13T18:14:58.347Z,1.55
2022-09-13T18:17:48.514Z,1.50
2022-09-13T18:20:40.787Z,1.35
2022-09-13T18:23:32.526Z,1.48
2022-09-13T18:26:24.659Z,1.70
2022-09-13T18:29:14.791Z,1.60
2022-09-13T18:32:05.238Z,1.70
2022-09-13T18:34:55.375Z,1.42
2022-09-13T18:37:45.311Z,1.50
2022-09-13T18:40:35.343Z,1.70
2022-09-13T18:43:25.605Z,1.60
2022-09-13T18:46:20.758Z,2.90
2022-09-13T18:49:11.098Z,4.00
2022-09-13T18:52:01.634Z,2.33
2022-09-13T18:54:51.729Z,1.38
2022-09-13T18:57:41.605Z,1.90
2022-09-13T19:00:32.392Z,1.70
2022-09-13T19:03:22.453Z,1.85
2022-09-13T19:06:23.046Z,2.22
2022-09-13T19:09:14.365Z,1.98
2022-09-13T19:12:05.498Z,1.63
2022-09-13T19:14:55.744Z,1.73
2022-09-13T19:17:45.716Z,1.52
2022-09-13T19:20:35.575Z,1.90
2022-09-13T19:23:42.983Z,1.42
2022-09-13T19:26:38.916Z,1.60
2022-09-13T19:29:29.173Z,1.70
2022-09-13T19:32:19.433Z,1.90
2022-09-13T19:35:09.724Z,1.58
2022-09-13T19:37:59.886Z,1.50
2022-09-13T19:41:01.549Z,1.63
2022-09-13T19:44:00.511Z,1.80
2022-09-13T19:47:06.978Z,1.60
2022-09-13T19:50:01.440Z,1.70
2022-09-13T19:52:51.677Z,1.52
2022-09-13T19:55:46.731Z,2.03
2022-09-13T19:58:37.147Z,1.90
2022-09-13T20:01:29.855Z,1.80
2022-09-13T20:04:21.394Z,2.05
2022-09-13T20:07:13.349Z,1.70
2022-09-13T20:10:03.570Z,1.73
2022-09-13T20:12:56.734Z,2.03
2022-09-13T20:15:46.592Z,2.08
2022-09-13T20:18:37.500Z,1.60
2022-09-13T20:21:29.980Z,1.50
2022-09-13T20:24:20.107Z,4.13
2022-09-13T20:27:11.583Z,2.28
2022-09-13T20:30:01.913Z,1.88
2022-09-13T20:32:54.497Z,1.90
2022-09-13T20:35:45.052Z,2.10
2022-09-13T20:38:35.862Z,2.03
2022-09-13T20:41:26.703Z,1.85
2022-09-13T20:44:17.302Z,1.73
2022-09-13T20:47:08.623Z,1.90
2022-09-13T20:49:58.827Z,1.90
2022-09-13T20:52:49.115Z,2.33
2022-09-13T20:55:40.458Z,2.25
2022-09-13T20:58:30.950Z,2.15
2022-09-13T21:01:22.308Z,2.00
2022-09-13T21:04:12.543Z,1.85
2022-09-13T21:07:21.232Z,2.03
2022-09-13T21:10:11.556Z,2.13
2022-09-13T21:13:01.906Z,2.40
2022-09-13T21:15:52.127Z,2.00
2022-09-13T21:18:43.009Z,2.10
2022-09-13T21:21:36.069Z,1.85
2022-09-13T21:24:26.675Z,2.08
2022-09-13T21:27:17.293Z,2.30
2022-09-13T21:30:08.252Z,2.45
2022-09-13T21:32:58.520Z,2.42
2022-09-13T21:35:48.721Z,2.63
2022-09-13T21:38:39.951Z,3.55
2022-09-13T21:41:31.089Z,4.20
2022-09-13T21:44:21.321Z,3.40
2022-09-13T21:47:11.510Z,3.28
2022-09-13T21:50:02.614Z,2.17
2022-09-13T21:52:52.544Z,2.33
2022-09-13T21:55:42.665Z,2.13
2022-09-13T21:58:33.793Z,2.38
2022-09-13T22:01:24.778Z,2.17
2022-09-13T22:04:17.575Z,2.00
2022-09-13T22:07:07.533Z,2.30
2022-09-13T22:09:57.615Z,1.90
2022-09-13T22:12:47.930Z,2.38
2022-09-13T22:15:38.521Z,2.28
2022-09-13T22:18:28.383Z,2.40
2022-09-13T22:21:21.168Z,2.10
2022-09-13T22:24:20.742Z,2.20
2022-09-13T22:27:10.922Z,2.33
2022-09-13T22:30:11.519Z,1.95
2022-09-13T22:33:02.221Z,2.28
2022-09-13T22:36:03.161Z,2.50
2022-09-13T22:38:55.075Z,2.20
2022-09-13T22:41:45.592Z,2.17
2022-09-13T22:44:35.869Z,2.50
2022-09-13T22:47:25.886Z,2.40
2022-09-13T22:50:16.012Z,2.15
2022-09-13T22:53:06.270Z,2.40
2022-09-13T22:56:02.548Z,2.45
2022-09-13T22:59:12.371Z,2.53
2022-09-13T23:02:02.475Z,2.22
2022-09-13T23:04:52.445Z,2.20
2022-09-13T23:07:42.398Z,2.20
2022-09-13T23:10:32.617Z,2.40
2022-09-13T23:13:22.825Z,2.30
2022-09-13T23:16:17.188Z,2.20
2022-09-13T23:19:07.387Z,2.17
2022-09-13T23:21:57.526Z,2.30
2022-09-13T23:24:47.509Z,1.90
2022-09-13T23:27:37.445Z,2.30
2022-09-13T23:30:27.843Z,2.20
2022-09-13T23:33:18.372Z,2.05
2022-09-13T23:36:09.651Z,2.28
2022-09-13T23:39:03.075Z,2.20
2022-09-13T23:41:53.414Z,2.85
2022-09-13T23:44:43.824Z,2.45
2022-09-13T23:47:33.917Z,2.35
2022-09-13T23:50:23.749Z,2.72
2022-09-13T23:53:13.876Z,2.55
2022-09-13T23:56:07.941Z,3.00
2022-09-13T23:59:00.272Z,2.95
